sensor_id;sensor_type;location;lat;lon;timestamp;pressure;altitude;pressure_sealevel;temperature;humidity
5298;BME280;14738;42.668;23.250;2023-02-10T00:03:37;48799.28;;;-141.90;100.00
5298;BME280;14738;42.668;23.250;2023-02-10T00:06:04;48821.13;;;-141.90;100.00
5298;BME280;14738;42.668;23.250;2023-02-10T00:08:30;48791.34;;;-141.90;100.00
5298;BME280;14738;42.668;23.250;2023-02-10T00:11:00;48817.16;;;-141.90;100.00
5298;BME280;14738;42.668;23.250;2023-02-10T00:13:26;48795.31;;;-141.90;100.00
5298;BME280;14738;42.668;23.250;2023-02-10T00:15:52;48799.28;;;-141.90;100.00
5298;BME280;14738;42.668;23.250;2023-02-10T00:18:19;48797.28;;;-141.90;100.00
5298;BME280;14738;42.668;23.250;2023-02-10T00:20:45;48789.34;;;-141.90;100.00
5298;BME280;14738;42.668;23.250;2023-02-10T00:23:10;48793.31;;;-141.90;100.00
5298;BME280;14738;42.668;23.250;2023-02-10T00:25:36;48811.19;;;-141.90;100.00
5298;BME280;14738;42.668;23.250;2023-02-10T00:28:02;48811.19;;;-141.90;100.00
5298;BME280;14738;42.668;23.250;2023-02-10T00:30:28;48813.19;;;-141.90;100.00
5298;BME280;14738;42.668;23.250;2023-02-10T00:32:53;48821.13;;;-141.90;100.00
5298;BME280;14738;42.668;23.250;2023-02-10T00:35:18;48803.25;;;-141.90;100.00
5298;BME280;14738;42.668;23.250;2023-02-10T00:37:44;48799.28;;;-141.90;100.00
5298;BME280;14738;42.668;23.250;2023-02-10T00:40:12;48799.28;;;-141.90;100.00
5298;BME280;14738;42.668;23.250;2023-02-10T00:42:37;48827.06;;;-141.90;100.00
5298;BME280;14738;42.668;23.250;2023-02-10T00:45:04;48842.97;;;-141.90;100.00
5298;BME280;14738;42.668;23.250;2023-02-10T00:47:29;48797.28;;;-141.90;100.00
5298;BME280;14738;42.668;23.250;2023-02-10T00:49:55;48807.22;;;-141.90;100.00
5298;BME280;14738;42.668;23.250;2023-02-10T00:52:22;48823.09;;;-141.90;100.00
5298;BME280;14738;42.668;23.250;2023-02-10T00:54:47;48837.00;;;-141.90;100.00
5298;BME280;14738;42.668;23.250;2023-02-10T00:57:13;48821.13;;;-141.90;100.00
5298;BME280;14738;42.668;23.250;2023-02-10T00:59:38;48839.00;;;-141.90;100.00
5298;BME280;14738;42.668;23.250;2023-02-10T01:02:04;48819.13;;;-141.90;100.00
5298;BME280;14738;42.668;23.250;2023-02-10T01:04:29;48827.06;;;-141.90;100.00
5298;BME280;14738;42.668;23.250;2023-02-10T01:06:55;48835.03;;;-141.90;100.00
5298;BME280;14738;42.668;23.250;2023-02-10T01:09:20;48831.03;;;-141.90;100.00
5298;BME280;14738;42.668;23.250;2023-02-10T01:11:45;48833.03;;;-141.90;100.00
5298;BME280;14738;42.668;23.250;2023-02-10T01:14:11;48835.03;;;-141.90;100.00
5298;BME280;14738;42.668;23.250;2023-02-10T01:16:37;48833.03;;;-141.90;100.00
5298;BME280;14738;42.668;23.250;2023-02-10T01:19:03;48797.28;;;-141.90;100.00
5298;BME280;14738;42.668;23.250;2023-02-10T01:21:29;48835.03;;;-141.90;100.00
5298;BME280;14738;42.668;23.250;2023-02-10T01:23:55;48829.06;;;-141.90;100.00
5298;BME280;14738;42.668;23.250;2023-02-10T01:26:21;48815.16;;;-141.90;100.00
5298;BME280;14738;42.668;23.250;2023-02-10T01:28:47;48811.19;;;-141.90;100.00
5298;BME280;14738;42.668;23.250;2023-02-10T01:31:15;48846.94;;;-141.90;100.00
5298;BME280;14738;42.668;23.250;2023-02-10T01:33:41;48829.06;;;-141.90;100.00
5298;BME280;14738;42.668;23.250;2023-02-10T01:36:10;48811.19;;;-141.90;100.00
5298;BME280;14738;42.668;23.250;2023-02-10T01:38:36;48811.19;;;-141.90;100.00
5298;BME280;14738;42.668;23.250;2023-02-10T01:41:03;48839.00;;;-141.90;100.00
5298;BME280;14738;42.668;23.250;2023-02-10T01:43:29;48793.31;;;-141.90;100.00
5298;BME280;14738;42.668;23.250;2023-02-10T01:45:54;48807.22;;;-141.90;100.00
5298;BME280;14738;42.668;23.250;2023-02-10T01:48:20;48805.25;;;-141.90;100.00
5298;BME280;14738;42.668;23.250;2023-02-10T01:53:13;48811.19;;;-141.90;100.00
5298;BME280;14738;42.668;23.250;2023-02-10T01:55:43;48839.00;;;-141.90;100.00
5298;BME280;14738;42.668;23.250;2023-02-10T01:58:10;48807.22;;;-141.90;100.00
5298;BME280;14738;42.668;23.250;2023-02-10T02:00:37;48846.94;;;-141.90;100.00
5298;BME280;14738;42.668;23.250;2023-02-10T02:03:04;48815.16;;;-141.90;100.00
5298;BME280;14738;42.668;23.250;2023-02-10T02:05:35;48819.13;;;-141.90;100.00
5298;BME280;14738;42.668;23.250;2023-02-10T02:10:43;48833.03;;;-141.90;100.00
5298;BME280;14738;42.668;23.250;2023-02-10T02:22:31;48813.19;;;-141.90;100.00
5298;BME280;14738;42.668;23.250;2023-02-10T02:31:07;48823.09;;;-141.90;100.00
5298;BME280;14738;42.668;23.250;2023-02-10T02:33:51;48831.03;;;-141.90;100.00
5298;BME280;14738;42.668;23.250;2023-02-10T02:36:37;48803.25;;;-141.90;100.00
5298;BME280;14738;42.668;23.250;2023-02-10T02:39:05;48827.06;;;-141.90;100.00
5298;BME280;14738;42.668;23.250;2023-02-10T02:41:32;48842.97;;;-141.90;100.00
5298;BME280;14738;42.668;23.250;2023-02-10T02:43:59;48819.13;;;-141.90;100.00
5298;BME280;14738;42.668;23.250;2023-02-10T02:48:56;48809.22;;;-141.90;100.00
5298;BME280;14738;42.668;23.250;2023-02-10T02:54:24;48844.94;;;-141.90;100.00
5298;BME280;14738;42.668;23.250;2023-02-10T02:56:59;48850.91;;;-141.90;100.00
5298;BME280;14738;42.668;23.250;2023-02-10T03:01:56;48803.25;;;-141.90;100.00
5298;BME280;14738;42.668;23.250;2023-02-10T03:04:26;48795.31;;;-141.90;100.00
5298;BME280;14738;42.668;23.250;2023-02-10T03:06:52;48811.19;;;-141.90;100.00
5298;BME280;14738;42.668;23.250;2023-02-10T03:09:18;48791.34;;;-141.90;100.00
5298;BME280;14738;42.668;23.250;2023-02-10T03:11:44;48823.09;;;-141.90;100.00
5298;BME280;14738;42.668;23.250;2023-02-10T03:14:09;48858.84;;;-141.90;100.00
5298;BME280;14738;42.668;23.250;2023-02-10T03:16:34;48866.78;;;-141.90;100.00
5298;BME280;14738;42.668;23.250;2023-02-10T03:19:00;48854.88;;;-141.90;100.00
5298;BME280;14738;42.668;23.250;2023-02-10T03:21:25;48858.84;;;-141.90;100.00
5298;BME280;14738;42.668;23.250;2023-02-10T03:23:51;48850.91;;;-141.90;100.00
5298;BME280;14738;42.668;23.250;2023-02-10T03:26:16;48856.84;;;-141.90;100.00
5298;BME280;14738;42.668;23.250;2023-02-10T03:28:42;48842.97;;;-141.90;100.00
5298;BME280;14738;42.668;23.250;2023-02-10T03:31:08;48846.94;;;-141.90;100.00
5298;BME280;14738;42.668;23.250;2023-02-10T03:33:34;48839.00;;;-141.90;100.00
5298;BME280;14738;42.668;23.250;2023-02-10T03:36:00;48846.94;;;-141.90;100.00
5298;BME280;14738;42.668;23.250;2023-02-10T03:38:27;48848.91;;;-141.90;100.00
5298;BME280;14738;42.668;23.250;2023-02-10T03:40:53;48850.91;;;-141.90;100.00
5298;BME280;14738;42.668;23.250;2023-02-10T03:43:20;48815.16;;;-141.90;100.00
5298;BME280;14738;42.668;23.250;2023-02-10T03:45:46;48842.97;;;-141.90;100.00
5298;BME280;14738;42.668;23.250;2023-02-10T03:48:11;48844.94;;;-141.90;100.00
5298;BME280;14738;42.668;23.250;2023-02-10T03:50:37;48842.97;;;-141.90;100.00
5298;BME280;14738;42.668;23.250;2023-02-10T03:53:03;48850.91;;;-141.90;100.00
5298;BME280;14738;42.668;23.250;2023-02-10T03:55:30;48827.06;;;-141.90;100.00
5298;BME280;14738;42.668;23.250;2023-02-10T03:57:55;48842.97;;;-141.90;100.00
5298;BME280;14738;42.668;23.250;2023-02-10T04:00:21;48846.94;;;-141.90;100.00
5298;BME280;14738;42.668;23.250;2023-02-10T04:02:46;48831.03;;;-141.90;100.00
5298;BME280;14738;42.668;23.250;2023-02-10T04:05:12;48823.09;;;-141.90;100.00
5298;BME280;14738;42.668;23.250;2023-02-10T04:07:38;48856.84;;;-141.90;100.00
5298;BME280;14738;42.668;23.250;2023-02-10T04:10:04;48827.06;;;-141.90;100.00
5298;BME280;14738;42.668;23.250;2023-02-10T04:12:30;48823.09;;;-141.90;100.00
5298;BME280;14738;42.668;23.250;2023-02-10T04:14:56;48835.03;;;-141.90;100.00
5298;BME280;14738;42.668;23.250;2023-02-10T04:17:21;48850.91;;;-141.90;100.00
5298;BME280;14738;42.668;23.250;2023-02-10T04:19:47;48833.03;;;-141.90;100.00
5298;BME280;14738;42.668;23.250;2023-02-10T04:22:12;48839.00;;;-141.90;100.00
5298;BME280;14738;42.668;23.250;2023-02-10T04:24:37;48839.00;;;-141.90;100.00
5298;BME280;14738;42.668;23.250;2023-02-10T04:27:03;48839.00;;;-141.90;100.00
5298;BME280;14738;42.668;23.250;2023-02-10T04:29:28;48835.03;;;-141.90;100.00
5298;BME280;14738;42.668;23.250;2023-02-10T04:31:54;48846.94;;;-141.90;100.00
5298;BME280;14738;42.668;23.250;2023-02-10T04:34:19;48827.06;;;-141.90;100.00
5298;BME280;14738;42.668;23.250;2023-02-10T04:36:44;48846.94;;;-141.90;100.00
5298;BME280;14738;42.668;23.250;2023-02-10T04:39:10;48858.84;;;-141.90;100.00
5298;BME280;14738;42.668;23.250;2023-02-10T04:41:35;48823.09;;;-141.90;100.00
5298;BME280;14738;42.668;23.250;2023-02-10T04:44:01;48858.84;;;-141.90;100.00
5298;BME280;14738;42.668;23.250;2023-02-10T04:46:26;48840.97;;;-141.90;100.00
5298;BME280;14738;42.668;23.250;2023-02-10T04:48:52;48876.72;;;-141.90;100.00
5298;BME280;14738;42.668;23.250;2023-02-10T04:51:17;48833.03;;;-141.90;100.00
5298;BME280;14738;42.668;23.250;2023-02-10T04:53:42;48852.88;;;-141.90;100.00
5298;BME280;14738;42.668;23.250;2023-02-10T04:56:09;48823.09;;;-141.90;100.00
5298;BME280;14738;42.668;23.250;2023-02-10T04:58:34;48795.31;;;-141.90;100.00
5298;BME280;14738;42.668;23.250;2023-02-10T05:01:00;48858.84;;;-141.90;100.00
5298;BME280;14738;42.668;23.250;2023-02-10T05:03:25;48842.97;;;-141.90;100.00
5298;BME280;14738;42.668;23.250;2023-02-10T05:05:51;48827.06;;;-141.90;100.00
5298;BME280;14738;42.668;23.250;2023-02-10T05:08:18;48852.88;;;-141.90;100.00
5298;BME280;14738;42.668;23.250;2023-02-10T05:10:49;48866.78;;;-141.90;100.00
5298;BME280;14738;42.668;23.250;2023-02-10T05:13:15;48819.13;;;-141.90;100.00
5298;BME280;14738;42.668;23.250;2023-02-10T05:15:40;48862.81;;;-141.90;100.00
5298;BME280;14738;42.668;23.250;2023-02-10T05:18:08;48837.00;;;-141.90;100.00
5298;BME280;14738;42.668;23.250;2023-02-10T05:20:34;48854.88;;;-141.90;100.00
5298;BME280;14738;42.668;23.250;2023-02-10T05:22:59;48870.75;;;-141.90;100.00
5298;BME280;14738;42.668;23.250;2023-02-10T05:25:25;48858.84;;;-141.90;100.00
5298;BME280;14738;42.668;23.250;2023-02-10T05:27:51;48829.06;;;-141.90;100.00
5298;BME280;14738;42.668;23.250;2023-02-10T05:30:16;48842.97;;;-141.90;100.00
5298;BME280;14738;42.668;23.250;2023-02-10T05:32:42;48850.91;;;-141.90;100.00
5298;BME280;14738;42.668;23.250;2023-02-10T05:35:08;48823.09;;;-141.90;100.00
5298;BME280;14738;42.668;23.250;2023-02-10T05:37:36;48850.91;;;-141.90;100.00
5298;BME280;14738;42.668;23.250;2023-02-10T05:40:03;48839.00;;;-141.90;100.00
5298;BME280;14738;42.668;23.250;2023-02-10T05:42:30;48823.09;;;-141.90;100.00
5298;BME280;14738;42.668;23.250;2023-02-10T05:44:56;48803.25;;;-141.90;100.00
5298;BME280;14738;42.668;23.250;2023-02-10T05:47:22;48829.06;;;-141.90;100.00
5298;BME280;14738;42.668;23.250;2023-02-10T05:49:47;48819.13;;;-141.90;100.00
5298;BME280;14738;42.668;23.250;2023-02-10T05:52:16;48819.13;;;-141.90;100.00
5298;BME280;14738;42.668;23.250;2023-02-10T05:54:42;48791.34;;;-141.90;100.00
5298;BME280;14738;42.668;23.250;2023-02-10T05:57:18;48799.28;;;-141.90;100.00
5298;BME280;14738;42.668;23.250;2023-02-10T05:59:45;48761.56;;;-141.90;100.00
5298;BME280;14738;42.668;23.250;2023-02-10T06:02:10;48779.44;;;-141.90;100.00
5298;BME280;14738;42.668;23.250;2023-02-10T06:04:36;48731.78;;;-141.90;100.00
5298;BME280;14738;42.668;23.250;2023-02-10T06:07:03;48767.50;;;-141.90;100.00
5298;BME280;14738;42.668;23.250;2023-02-10T06:09:29;48795.31;;;-141.90;100.00
5298;BME280;14738;42.668;23.250;2023-02-10T06:11:55;48751.63;;;-141.90;100.00
5298;BME280;14738;42.668;23.250;2023-02-10T06:14:20;48747.66;;;-141.90;100.00
5298;BME280;14738;42.668;23.250;2023-02-10T06:16:46;48751.63;;;-141.90;100.00
5298;BME280;14738;42.668;23.250;2023-02-10T06:19:11;48763.53;;;-141.90;100.00
5298;BME280;14738;42.668;23.250;2023-02-10T06:21:37;48700.00;;;-141.90;100.00
5298;BME280;14738;42.668;23.250;2023-02-10T06:24:02;48713.91;;;-141.90;100.00
5298;BME280;14738;42.668;23.250;2023-02-10T06:26:28;48676.19;;;-141.90;48.79
5298;BME280;14738;42.668;23.250;2023-02-10T06:28:54;48700.00;;;-141.90;46.98
5298;BME280;14738;42.668;23.250;2023-02-10T06:31:20;48731.78;;;-141.90;46.74
5298;BME280;14738;42.668;23.250;2023-02-10T06:33:45;48688.09;;;-141.90;48.58
5298;BME280;14738;42.668;23.250;2023-02-10T06:36:11;48700.00;;;-141.90;49.24
5298;BME280;14738;42.668;23.250;2023-02-10T06:38:37;48719.88;;;-141.90;49.07
5298;BME280;14738;42.668;23.250;2023-02-10T06:41:03;48729.78;;;-141.90;49.43
5298;BME280;14738;42.668;23.250;2023-02-10T06:43:29;48715.91;;;-141.90;48.72
5298;BME280;14738;42.668;23.250;2023-02-10T06:45:54;48739.72;;;-141.90;48.79
5298;BME280;14738;42.668;23.250;2023-02-10T06:48:19;48743.69;;;-141.90;48.93
5298;BME280;14738;42.668;23.250;2023-02-10T06:50:45;48739.72;;;-141.90;48.37
5298;BME280;14738;42.668;23.250;2023-02-10T06:53:10;48684.13;;;-141.90;48.29
5298;BME280;14738;42.668;23.250;2023-02-10T06:55:36;48709.94;;;-141.90;48.22
5298;BME280;14738;42.668;23.250;2023-02-10T06:58:02;48700.00;;;-141.90;48.19
5298;BME280;14738;42.668;23.250;2023-02-10T07:00:28;48703.97;;;-141.90;48.41
5298;BME280;14738;42.668;23.250;2023-02-10T07:02:54;48703.97;;;-141.90;47.66
5298;BME280;14738;42.668;23.250;2023-02-10T07:05:20;48696.03;;;-141.90;47.29
5298;BME280;14738;42.668;23.250;2023-02-10T07:07:45;48670.22;;;-141.90;47.15
5298;BME280;14738;42.668;23.250;2023-02-10T07:10:11;48678.16;;;-141.90;47.68
5298;BME280;14738;42.668;23.250;2023-02-10T07:12:37;48692.06;;;-141.90;47.16
5298;BME280;14738;42.668;23.250;2023-02-10T07:15:04;48711.91;;;-141.90;47.53
5298;BME280;14738;42.668;23.250;2023-02-10T07:17:30;48709.94;;;-141.90;47.74
5298;BME280;14738;42.668;23.250;2023-02-10T07:19:55;48719.88;;;-141.90;48.07
5298;BME280;14738;42.668;23.250;2023-02-10T07:22:21;48739.72;;;-141.90;48.67
5298;BME280;14738;42.668;23.250;2023-02-10T07:24:46;48698.03;;;-141.90;48.43
5298;BME280;14738;42.668;23.250;2023-02-10T07:27:12;48713.91;;;-141.90;47.71
5298;BME280;14738;42.668;23.250;2023-02-10T07:29:37;48719.88;;;-141.90;48.17
5298;BME280;14738;42.668;23.250;2023-02-10T07:32:03;48747.66;;;-141.90;47.83
5298;BME280;14738;42.668;23.250;2023-02-10T07:34:28;48694.06;;;-141.90;47.98
5298;BME280;14738;42.668;23.250;2023-02-10T07:36:56;48696.03;;;-141.90;47.63
5298;BME280;14738;42.668;23.250;2023-02-10T07:39:25;48715.91;;;-141.90;47.10
5298;BME280;14738;42.668;23.250;2023-02-10T07:41:51;48686.13;;;-141.90;47.02
5298;BME280;14738;42.668;23.250;2023-02-10T07:44:17;48692.06;;;-141.90;47.48
5298;BME280;14738;42.668;23.250;2023-02-10T07:46:44;48702.00;;;-141.90;46.91
5298;BME280;14738;42.668;23.250;2023-02-10T07:49:09;48688.09;;;-141.90;46.90
5298;BME280;14738;42.668;23.250;2023-02-10T07:51:35;48672.22;;;-141.90;46.15
5298;BME280;14738;42.668;23.250;2023-02-10T07:54:01;48702.00;;;-141.90;45.97
5298;BME280;14738;42.668;23.250;2023-02-10T07:56:27;48692.06;;;-141.90;45.87
5298;BME280;14738;42.668;23.250;2023-02-10T07:58:52;48702.00;;;-141.90;46.34
5298;BME280;14738;42.668;23.250;2023-02-10T08:01:18;48719.88;;;-141.90;46.27
5298;BME280;14738;42.668;23.250;2023-02-10T08:03:43;48688.09;;;-141.90;45.78
5298;BME280;14738;42.668;23.250;2023-02-10T08:06:09;48680.16;;;-141.90;44.69
5298;BME280;14738;42.668;23.250;2023-02-10T08:08:34;48676.19;;;-141.90;45.17
5298;BME280;14738;42.668;23.250;2023-02-10T08:11:03;48668.25;;;-141.90;45.21
5298;BME280;14738;42.668;23.250;2023-02-10T08:13:29;48698.03;;;-141.90;45.51
5298;BME280;14738;42.668;23.250;2023-02-10T08:15:55;48692.06;;;-141.90;45.53
5298;BME280;14738;42.668;23.250;2023-02-10T08:18:20;48660.31;;;-141.90;44.79
5298;BME280;14738;42.668;23.250;2023-02-10T08:20:45;48711.91;;;-141.90;44.81
5298;BME280;14738;42.668;23.250;2023-02-10T08:23:15;48690.09;;;-141.90;44.34
5298;BME280;14738;42.668;23.250;2023-02-10T08:25:41;48668.25;;;-141.90;45.01
5298;BME280;14738;42.668;23.250;2023-02-10T08:28:06;48678.16;;;-141.90;44.78
5298;BME280;14738;42.668;23.250;2023-02-10T08:30:32;48662.28;;;-141.90;44.22
5298;BME280;14738;42.668;23.250;2023-02-10T08:32:57;48711.91;;;-141.90;45.01
5298;BME280;14738;42.668;23.250;2023-02-10T08:35:23;48670.22;;;-141.90;43.16
5298;BME280;14738;42.668;23.250;2023-02-10T08:37:49;48650.38;;;-141.90;43.41
5298;BME280;14738;42.668;23.250;2023-02-10T08:40:14;48676.19;;;-141.90;43.33
5298;BME280;14738;42.668;23.250;2023-02-10T08:42:40;48632.50;;;-141.90;44.43
5298;BME280;14738;42.668;23.250;2023-02-10T08:45:05;48652.38;;;-141.90;43.38
5298;BME280;14738;42.668;23.250;2023-02-10T08:47:32;48666.25;;;-141.90;42.86
5298;BME280;14738;42.668;23.250;2023-02-10T08:49:58;48628.53;;;-141.90;42.85
5298;BME280;14738;42.668;23.250;2023-02-10T08:52:23;48666.25;;;-141.90;42.64
5298;BME280;14738;42.668;23.250;2023-02-10T08:54:49;48640.44;;;-141.90;42.42
5298;BME280;14738;42.668;23.250;2023-02-10T08:57:14;48664.28;;;-141.90;41.14
5298;BME280;14738;42.668;23.250;2023-02-10T08:59:40;48634.50;;;-141.90;41.72
5298;BME280;14738;42.668;23.250;2023-02-10T09:02:06;48662.28;;;-141.90;41.42
5298;BME280;14738;42.668;23.250;2023-02-10T09:04:31;48644.41;;;-141.90;42.11
5298;BME280;14738;42.668;23.250;2023-02-10T09:06:57;48618.59;;;-141.90;41.44
5298;BME280;14738;42.668;23.250;2023-02-10T09:09:23;48622.59;;;-141.90;40.44
5298;BME280;14738;42.668;23.250;2023-02-10T09:11:50;48618.59;;;-141.90;40.99
5298;BME280;14738;42.668;23.250;2023-02-10T09:14:15;48698.03;;;-141.90;40.56
5298;BME280;14738;42.668;23.250;2023-02-10T09:16:41;48630.53;;;-141.90;40.87
5298;BME280;14738;42.668;23.250;2023-02-10T09:19:06;48644.41;;;-141.90;40.07
5298;BME280;14738;42.668;23.250;2023-02-10T09:21:32;48648.38;;;-141.90;40.04
5298;BME280;14738;42.668;23.250;2023-02-10T09:23:57;48648.38;;;-141.90;39.61
5298;BME280;14738;42.668;23.250;2023-02-10T09:26:23;48600.75;;;-141.90;40.56
5298;BME280;14738;42.668;23.250;2023-02-10T09:28:49;48642.44;;;-141.90;39.61
5298;BME280;14738;42.668;23.250;2023-02-10T09:31:14;48620.59;;;-141.90;39.95
5298;BME280;14738;42.668;23.250;2023-02-10T09:33:43;48620.59;;;-141.90;40.29
5298;BME280;14738;42.668;23.250;2023-02-10T09:36:14;48650.38;;;-141.90;38.97
5298;BME280;14738;42.668;23.250;2023-02-10T09:38:40;48624.56;;;-141.90;39.53
5298;BME280;14738;42.668;23.250;2023-02-10T09:55:33;48610.66;;;-141.90;37.84
5298;BME280;14738;42.668;23.250;2023-02-10T09:58:16;48618.59;;;-141.90;37.94
5298;BME280;14738;42.668;23.250;2023-02-10T10:00:44;48618.59;;;-141.90;38.65
5298;BME280;14738;42.668;23.250;2023-02-10T10:03:21;48640.44;;;-141.90;37.99
5298;BME280;14738;42.668;23.250;2023-02-10T10:08:57;48642.44;;;-141.90;37.70
5298;BME280;14738;42.668;23.250;2023-02-10T10:11:39;48634.50;;;-141.90;37.76
5298;BME280;14738;42.668;23.250;2023-02-10T10:14:27;48648.38;;;-141.90;37.10
5298;BME280;14738;42.668;23.250;2023-02-10T10:22:35;48608.69;;;-141.90;36.11
5298;BME280;14738;42.668;23.250;2023-02-10T10:33:32;48604.72;;;-141.90;36.85
5298;BME280;14738;42.668;23.250;2023-02-10T10:35:59;48616.63;;;-141.90;36.94
5298;BME280;14738;42.668;23.250;2023-02-10T10:38:35;48592.81;;;-141.90;37.72
5298;BME280;14738;42.668;23.250;2023-02-10T10:41:06;48596.78;;;-141.90;36.99
5298;BME280;14738;42.668;23.250;2023-02-10T10:43:42;48594.78;;;-141.90;36.05
5298;BME280;14738;42.668;23.250;2023-02-10T10:48:41;48570.97;;;-141.90;36.13
5298;BME280;14738;42.668;23.250;2023-02-10T10:51:08;48580.88;;;-141.90;35.58
5298;BME280;14738;42.668;23.250;2023-02-10T10:53:48;48598.75;;;-141.90;35.22
5298;BME280;14738;42.668;23.250;2023-02-10T10:59:00;48604.72;;;-141.90;35.19
5298;BME280;14738;42.668;23.250;2023-02-10T11:01:33;48568.97;;;-141.90;35.14
5298;BME280;14738;42.668;23.250;2023-02-10T11:04:14;48582.88;;;-141.90;35.25
5298;BME280;14738;42.668;23.250;2023-02-10T11:06:43;48652.38;;;-141.90;35.18
5298;BME280;14738;42.668;23.250;2023-02-10T11:12:13;48586.84;;;-141.90;35.73
5298;BME280;14738;42.668;23.250;2023-02-10T11:14:43;48596.78;;;-141.90;34.99
5298;BME280;14738;42.668;23.250;2023-02-10T11:17:35;48608.69;;;-141.90;34.35
5298;BME280;14738;42.668;23.250;2023-02-10T11:20:23;48549.13;;;-141.90;34.90
5298;BME280;14738;42.668;23.250;2023-02-10T11:22:58;48565.00;;;-141.90;34.60
5298;BME280;14738;42.668;23.250;2023-02-10T11:25:34;48588.84;;;-141.90;34.42
5298;BME280;14738;42.668;23.250;2023-02-10T11:28:01;48588.84;;;-141.90;34.75
5298;BME280;14738;42.668;23.250;2023-02-10T11:30:28;48592.81;;;-141.90;34.93
5298;BME280;14738;42.668;23.250;2023-02-10T11:32:55;48580.88;;;-141.90;34.82
5298;BME280;14738;42.668;23.250;2023-02-10T11:35:22;48555.09;;;-141.90;34.35
5298;BME280;14738;42.668;23.250;2023-02-10T11:37:55;48592.81;;;-141.90;34.99
5298;BME280;14738;42.668;23.250;2023-02-10T11:40:27;48576.91;;;-141.90;34.88
5298;BME280;14738;42.668;23.250;2023-02-10T11:42:56;48553.09;;;-141.90;34.70
5298;BME280;14738;42.668;23.250;2023-02-10T11:45:25;48570.97;;;-141.90;34.98
5298;BME280;14738;42.668;23.250;2023-02-10T11:48:02;48568.97;;;-141.90;34.55
5298;BME280;14738;42.668;23.250;2023-02-10T11:50:32;48580.88;;;-141.90;34.53
5298;BME280;14738;42.668;23.250;2023-02-10T11:52:58;48572.94;;;-141.90;34.71
5298;BME280;14738;42.668;23.250;2023-02-10T11:55:50;48576.91;;;-141.90;34.28
5298;BME280;14738;42.668;23.250;2023-02-10T12:01:57;48576.91;;;-141.90;34.13
5298;BME280;14738;42.668;23.250;2023-02-10T12:23:51;48576.91;;;-141.90;34.10
5298;BME280;14738;42.668;23.250;2023-02-10T12:26:50;48551.09;;;-141.90;33.76
5298;BME280;14738;42.668;23.250;2023-02-10T12:29:43;48557.06;;;-141.90;33.94
5298;BME280;14738;42.668;23.250;2023-02-10T12:40:43;48541.19;;;-141.90;33.88
5298;BME280;14738;42.668;23.250;2023-02-10T12:46:10;48537.22;;;-141.90;34.71
5298;BME280;14738;42.668;23.250;2023-02-10T12:54:14;48549.13;;;-141.90;33.53
5298;BME280;14738;42.668;23.250;2023-02-10T12:56:46;48547.13;;;-141.90;33.58
5298;BME280;14738;42.668;23.250;2023-02-10T12:59:21;48561.03;;;-141.90;33.83
5298;BME280;14738;42.668;23.250;2023-02-10T13:01:54;48570.97;;;-141.90;34.21
5298;BME280;14738;42.668;23.250;2023-02-10T13:04:33;48576.91;;;-141.90;33.98
5298;BME280;14738;42.668;23.250;2023-02-10T13:07:11;48541.19;;;-141.90;34.10
5298;BME280;14738;42.668;23.250;2023-02-10T13:12:29;48565.00;;;-141.90;34.75
5298;BME280;14738;42.668;23.250;2023-02-10T13:15:02;48561.03;;;-141.90;34.74
5298;BME280;14738;42.668;23.250;2023-02-10T13:17:39;48541.19;;;-141.90;34.66
5298;BME280;14738;42.668;23.250;2023-02-10T13:20:30;48541.19;;;-141.90;34.15
5298;BME280;14738;42.668;23.250;2023-02-10T13:28:22;48588.84;;;-141.90;34.71
5298;BME280;14738;42.668;23.250;2023-02-10T13:31:20;48580.88;;;-141.90;35.03
5298;BME280;14738;42.668;23.250;2023-02-10T13:34:02;48592.81;;;-141.90;34.73
5298;BME280;14738;42.668;23.250;2023-02-10T13:36:30;48557.06;;;-141.90;34.62
5298;BME280;14738;42.668;23.250;2023-02-10T13:39:04;48592.81;;;-141.90;35.08
5298;BME280;14738;42.668;23.250;2023-02-10T13:41:33;48584.84;;;-141.90;35.11
5298;BME280;14738;42.668;23.250;2023-02-10T13:44:27;48545.16;;;-141.90;35.04
5298;BME280;14738;42.668;23.250;2023-02-10T13:49:35;48553.09;;;-141.90;34.49
5298;BME280;14738;42.668;23.250;2023-02-10T13:52:13;48584.84;;;-141.90;34.84
5298;BME280;14738;42.668;23.250;2023-02-10T13:54:39;48543.16;;;-141.90;35.23
5298;BME280;14738;42.668;23.250;2023-02-10T13:57:05;48549.13;;;-141.90;34.83
5298;BME280;14738;42.668;23.250;2023-02-10T13:59:46;48580.88;;;-141.90;35.10
5298;BME280;14738;42.668;23.250;2023-02-10T14:02:19;48574.94;;;-141.90;35.25
5298;BME280;14738;42.668;23.250;2023-02-10T14:04:49;48547.13;;;-141.90;35.71
5298;BME280;14738;42.668;23.250;2023-02-10T14:07:31;48586.84;;;-141.90;36.17
5298;BME280;14738;42.668;23.250;2023-02-10T14:12:56;48580.88;;;-141.90;36.12
5298;BME280;14738;42.668;23.250;2023-02-10T14:15:29;48568.97;;;-141.90;35.87
5298;BME280;14738;42.668;23.250;2023-02-10T14:18:01;48553.09;;;-141.90;36.05
5298;BME280;14738;42.668;23.250;2023-02-10T14:20:31;48533.25;;;-141.90;35.81
5298;BME280;14738;42.668;23.250;2023-02-10T14:22:58;48580.88;;;-141.90;36.11
5298;BME280;14738;42.668;23.250;2023-02-10T14:25:38;48576.91;;;-141.90;36.33
5298;BME280;14738;42.668;23.250;2023-02-10T14:28:04;48590.81;;;-141.90;36.46
5298;BME280;14738;42.668;23.250;2023-02-10T14:30:43;48568.97;;;-141.90;37.12
5298;BME280;14738;42.668;23.250;2023-02-10T14:33:27;48596.78;;;-141.90;37.17
5298;BME280;14738;42.668;23.250;2023-02-10T14:35:56;48572.94;;;-141.90;37.43
5298;BME280;14738;42.668;23.250;2023-02-10T14:38:24;48574.94;;;-141.90;36.92
5298;BME280;14738;42.668;23.250;2023-02-10T14:40:52;48572.94;;;-141.90;36.88
5298;BME280;14738;42.668;23.250;2023-02-10T14:43:23;48582.88;;;-141.90;36.96
5298;BME280;14738;42.668;23.250;2023-02-10T14:45:49;48598.75;;;-141.90;36.99